Time;durP1;ratioP1;P1;durP2;ratioP2;P2;SDS_P1;SDS_P2;PMS_P1;PMS_P2;Temp;Humidity;BMP_temperature;BMP_pressure;BME280_temperature;BME280_humidity;BME280_pressure;Samples;Min_cycle;Max_cycle;Signal;HPM_P1;HPM_P2
2021/08/10 00:02:09;;;;;;;16.55;4.40;;;;;;;18.75;77.57;100536.45;2832378;84;21550;-61
2021/08/10 00:06:14;;;;;;;17.57;4.97;;;;;;;18.66;77.38;100539.16;2832819;84;21064;-61
2021/08/10 00:10:19;;;;;;;10.98;4.00;;;;;;;18.57;77.95;100528.09;2832774;84;21068;-60
2021/08/10 00:14:21;;;;;;;11.05;4.58;;;;;;;18.50;78.08;100540.58;2832303;84;21092;-61
2021/08/10 00:18:23;;;;;;;12.03;4.58;;;;;;;18.39;77.15;100543.13;2835403;81;20995;-61
2021/08/10 00:22:25;;;;;;;9.88;4.45;;;;;;;18.26;77.78;100538.23;2857725;82;21005;-61
2021/08/10 00:26:28;;;;;;;10.18;3.30;;;;;;;18.12;78.35;100537.08;2859935;82;21016;-62
2021/08/10 00:30:30;;;;;;;9.63;4.25;;;;;;;18.08;78.75;100536.59;2877427;82;21021;-60
2021/08/10 00:34:32;;;;;;;12.75;4.65;;;;;;;18.05;79.05;100535.56;2877532;82;21057;-61
2021/08/10 00:38:34;;;;;;;14.87;4.58;;;;;;;18.07;79.07;100535.41;2877490;82;20997;-61
2021/08/10 00:42:37;;;;;;;8.43;3.40;;;;;;;18.08;79.42;100531.21;2838942;82;20973;-60
2021/08/10 00:46:42;;;;;;;8.10;4.33;;;;;;;18.02;79.53;100531.05;2828534;83;21080;-62
2021/08/10 00:50:45;;;;;;;15.10;4.87;;;;;;;17.89;79.94;100535.56;2828792;84;21073;-60
2021/08/10 00:54:47;;;;;;;12.18;5.78;;;;;;;17.85;80.30;100531.83;2827944;83;21013;-61
2021/08/10 00:58:55;;;;;;;17.32;4.55;;;;;;;17.85;80.51;100531.83;2827895;84;21049;-62
2021/08/10 01:02:57;;;;;;;9.03;3.40;;;;;;;17.78;79.51;100530.83;2828063;84;21095;-61
2021/08/10 01:07:13;;;;;;;9.53;3.58;;;;;;;17.62;78.17;100534.84;2828050;84;21025;-61
2021/08/10 01:11:23;;;;;;;9.80;4.37;;;;;;;17.49;77.95;100533.50;2827936;84;21421;-60
2021/08/10 01:15:30;;;;;;;13.72;4.65;;;;;;;17.41;77.74;100534.81;2827657;84;21302;-62
2021/08/10 01:20:18;;;;;;;7.75;3.62;;;;;;;17.36;79.02;100529.92;2828067;83;21040;-62
2021/08/10 01:24:27;;;;;;;7.08;3.37;;;;;;;17.30;79.32;100525.20;2827688;84;21056;-61
2021/08/10 01:28:54;;;;;;;8.25;3.30;;;;;;;17.21;80.19;100526.20;2831542;83;21001;-62
2021/08/10 01:33:00;;;;;;;4.55;2.37;;;;;;;17.20;81.16;100525.35;2831377;84;21558;-62
2021/08/10 01:37:14;;;;;;;6.58;4.17;;;;;;;17.07;81.89;100523.13;2830866;84;21056;-62
2021/08/10 01:41:19;;;;;;;8.88;3.85;;;;;;;17.02;83.24;100517.90;2831636;83;21498;-60
2021/08/10 01:45:22;;;;;;;8.38;4.17;;;;;;;16.96;84.18;100509.46;2831839;84;21531;-61
2021/08/10 01:49:28;;;;;;;13.90;5.72;;;;;;;16.91;84.61;100508.26;2831561;84;21479;-61
2021/08/10 01:53:32;;;;;;;17.30;5.62;;;;;;;16.82;84.73;100508.72;2831887;84;21064;-61
2021/08/10 01:57:37;;;;;;;15.72;10.88;;;;;;;16.81;84.88;100511.07;2831308;84;20989;-61
2021/08/10 02:01:43;;;;;;;12.75;5.58;;;;;;;16.65;85.12;100508.64;2831528;83;21033;-62
2021/08/10 02:05:48;;;;;;;;;;;;;;;16.49;85.92;100507.20;2834086;83;21053;-60
2021/08/10 02:09:54;;;;;;;9.75;3.77;;;;;;;16.46;86.46;100506.19;2831447;83;20129;-61
2021/08/10 02:13:58;;;;;;;;;;;;;;;16.42;86.35;100508.37;2833925;82;21100;-62
2021/08/10 02:18:00;;;;;;;9.23;5.00;;;;;;;16.34;86.76;100494.88;2870106;82;20119;-61
2021/08/10 02:22:10;;;;;;;8.53;5.15;;;;;;;16.22;87.26;100494.31;2862825;82;21013;-62
2021/08/10 02:26:17;;;;;;;7.05;4.12;;;;;;;16.11;87.91;100498.95;2829370;83;21550;-60
2021/08/10 02:30:36;;;;;;;8.45;4.17;;;;;;;16.01;88.62;100499.53;2827641;84;21041;-62
2021/08/10 02:34:41;;;;;;;9.60;4.75;;;;;;;15.96;88.92;100499.17;2827249;84;21064;-62
2021/08/10 02:38:46;;;;;;;11.50;4.75;;;;;;;15.89;89.20;100483.33;2856461;82;21507;-62
2021/08/10 02:42:53;;;;;;;6.35;4.30;;;;;;;15.77;89.39;100493.44;2876029;82;21581;-60
2021/08/10 02:46:58;;;;;;;9.73;4.85;;;;;;;15.68;89.69;100491.19;2875562;82;21022;-62
2021/08/10 02:51:01;;;;;;;;;;;;;;;15.60;90.41;100487.10;2878692;82;21037;-60
2021/08/10 02:55:04;;;;;;;7.97;3.58;;;;;;;15.56;91.19;100488.75;2876323;82;20106;-62
2021/08/10 02:59:31;;;;;;;8.50;5.00;;;;;;;15.59;91.18;100488.09;2875990;82;20990;-61
2021/08/10 03:03:36;;;;;;;11.15;4.50;;;;;;;15.66;91.11;100481.11;2875597;82;20998;-61
2021/08/10 03:07:48;;;;;;;7.10;3.87;;;;;;;15.67;91.05;100481.45;2854766;82;21017;-62
2021/08/10 03:11:53;;;;;;;7.28;4.15;;;;;;;15.64;90.98;100473.73;2874726;82;21048;-62
2021/08/10 03:15:57;;;;;;;10.85;4.42;;;;;;;15.59;90.86;100475.52;2877136;82;21006;-62
2021/08/10 03:20:34;;;;;;;6.22;4.33;;;;;;;15.47;90.90;100468.21;2857597;82;21007;-60
2021/08/10 03:24:40;;;;;;;5.90;4.40;;;;;;;15.43;91.29;100469.52;2854337;83;21577;-60
2021/08/10 03:29:12;;;;;;;;;;;;;;;15.47;91.20;100482.95;2882364;82;21051;-60
2021/08/10 03:33:18;;;;;;;6.12;4.25;;;;;;;15.65;90.91;100482.11;2880608;82;20099;-61
2021/08/10 03:37:51;;;;;;;18.00;6.15;;;;;;;15.79;89.82;100489.61;2822217;83;21048;-60
2021/08/10 03:41:53;;;;;;;24.05;7.08;;;;;;;15.88;88.17;100489.19;2821517;83;21005;-60
2021/08/10 03:45:56;;;;;;;11.68;4.78;;;;;;;15.90;87.29;100483.67;2822175;84;21016;-60
2021/08/10 03:50:35;;;;;;;6.30;4.55;;;;;;;15.97;87.07;100472.16;2822258;84;21506;-61
2021/08/10 03:54:38;;;;;;;23.10;5.62;;;;;;;16.05;86.83;100467.36;2821732;84;21191;-61
2021/08/10 03:59:16;;;;;;;16.02;5.72;;;;;;;16.24;86.71;100476.20;2822638;83;20997;-61
2021/08/10 04:03:19;;;;;;;11.73;4.85;;;;;;;16.35;86.22;100480.45;2861027;83;20990;-60
2021/08/10 04:08:00;;;;;;;5.60;4.35;;;;;;;16.53;86.52;100484.44;2864921;83;20986;-61
2021/08/10 04:12:05;;;;;;;6.37;3.52;;;;;;;16.72;86.27;100475.80;2817080;82;21587;-61
2021/08/10 04:16:10;;;;;;;17.20;5.28;;;;;;;16.69;86.34;100473.74;2815569;84;21021;-61
2021/08/10 04:20:14;;;;;;;26.37;6.10;;;;;;;17.37;86.44;100466.25;2816279;84;21013;-62
2021/08/10 04:24:16;;;;;;;16.55;5.90;;;;;;;17.37;86.44;100466.25;2844232;83;21355;-62
2021/08/10 04:28:21;;;;;;;8.08;4.72;;;;;;;17.96;85.46;100463.90;2870767;82;21020;-60
2021/08/10 04:32:23;;;;;;;11.00;3.95;;;;;;;18.98;88.50;100471.86;2881383;82;21065;-60
2021/08/10 04:36:25;;;;;;;12.55;4.75;;;;;;;20.18;84.80;100464.73;2881666;82;20993;-61
2021/08/10 04:40:28;;;;;;;4.25;3.00;;;;;;;21.19;79.32;100460.11;2882458;82;21025;-61
2021/08/10 04:44:33;;;;;;;6.67;3.58;;;;;;;22.05;74.24;100458.91;2882767;82;21510;-61
2021/08/10 04:48:37;;;;;;;3.00;2.55;;;;;;;22.92;72.83;100457.21;2883469;82;21009;-62
2021/08/10 04:52:45;;;;;;;3.43;2.97;;;;;;;23.73;69.22;100458.19;2883772;81;21128;-62
2021/08/10 04:56:48;;;;;;;7.42;2.98;;;;;;;24.49;67.30;100449.74;2883557;82;21061;-61
2021/08/10 05:00:53;;;;;;;8.93;2.90;;;;;;;24.61;63.01;100452.11;2883893;82;21097;-61
2021/08/10 05:04:57;;;;;;;6.60;3.33;;;;;;;24.76;63.68;100465.47;2883806;82;21045;-62
2021/08/10 05:09:01;;;;;;;6.93;3.30;;;;;;;24.67;61.75;100469.46;2883614;82;21057;-62
2021/08/10 05:13:04;;;;;;;5.67;3.27;;;;;;;24.45;62.86;100440.34;2883927;82;21815;-62
2021/08/10 05:17:08;;;;;;;7.05;2.62;;;;;;;24.88;63.71;100466.16;2883381;82;20982;-62
2021/08/10 05:21:09;;;;;;;10.00;3.02;;;;;;;25.54;62.71;100457.30;2884243;82;21053;-61
2021/08/10 05:25:14;;;;;;;8.25;2.95;;;;;;;25.97;60.41;100461.13;2884181;82;21041;-61
2021/08/10 05:29:27;;;;;;;5.35;2.80;;;;;;;26.26;59.26;100460.13;2884081;82;21029;-62
2021/08/10 05:33:29;;;;;;;3.60;2.60;;;;;;;26.51;59.31;100456.48;2884573;82;21041;-61
2021/08/10 05:37:32;;;;;;;5.60;2.77;;;;;;;26.79;58.90;100460.02;2874453;81;21044;-62
2021/08/10 05:41:35;;;;;;;4.30;3.30;;;;;;;26.94;57.68;100461.03;2849130;82;21088;-62
2021/08/10 05:45:37;;;;;;;5.97;2.77;;;;;;;26.94;57.39;100467.85;2873314;82;21033;-62
2021/08/10 05:50:18;;;;;;;5.47;2.15;;;;;;;26.62;57.00;100466.64;2884463;82;20989;-62
2021/08/10 05:54:24;;;;;;;5.20;2.05;;;;;;;26.27;58.74;100462.33;2884415;82;21104;-62
2021/08/10 05:58:28;;;;;;;;;;;;;;;25.72;58.21;100460.59;2845788;82;21025;-62
2021/08/10 06:02:30;;;;;;;4.60;2.30;;;;;;;25.07;59.51;100465.22;2835917;84;20121;-62
2021/08/10 06:06:34;;;;;;;4.08;1.98;;;;;;;24.71;60.66;100468.48;2835674;84;21048;-62
2021/08/10 06:10:36;;;;;;;4.53;1.60;;;;;;;24.66;61.86;100460.45;2835710;84;21002;-62
2021/08/10 06:14:38;;;;;;;7.58;3.17;;;;;;;24.73;61.75;100462.30;2843893;82;21238;-63
2021/08/10 06:18:42;;;;;;;3.37;2.47;;;;;;;25.00;60.52;100452.16;2884649;82;21009;-62
2021/08/10 06:22:47;;;;;;;4.87;2.95;;;;;;;25.23;60.55;100449.41;2874812;82;20993;-62
2021/08/10 06:26:49;;;;;;;4.58;3.10;;;;;;;25.64;60.31;100432.28;2833531;84;21022;-61
2021/08/10 06:30:51;;;;;;;7.60;3.20;;;;;;;25.97;59.27;100432.52;2832703;83;20978;-62
2021/08/10 06:34:53;;;;;;;4.20;2.83;;;;;;;26.16;58.66;100436.08;2835734;83;21640;-61
2021/08/10 06:38:57;;;;;;;3.47;2.33;;;;;;;26.27;58.01;100434.52;2839475;83;21010;-62
2021/08/10 06:43:01;;;;;;;5.22;2.22;;;;;;;26.35;57.21;100427.42;2859109;82;21045;-61
2021/08/10 06:47:07;;;;;;;3.08;2.65;;;;;;;26.57;57.63;100427.47;2837949;83;21029;-61
2021/08/10 06:51:14;;;;;;;5.55;3.42;;;;;;;26.76;57.87;100431.84;2857635;83;20978;-61
2021/08/10 06:55:19;;;;;;;14.03;7.65;;;;;;;26.98;56.84;100426.45;2868257;83;21013;-61
2021/08/10 06:59:23;;;;;;;9.15;5.80;;;;;;;27.14;56.89;100433.98;2872760;83;21006;-61
2021/08/10 07:03:25;;;;;;;6.35;4.05;;;;;;;27.14;57.00;100426.31;2859900;82;21045;-61
2021/08/10 07:07:38;;;;;;;7.37;5.05;;;;;;;26.96;57.06;100428.03;2834282;83;20959;-61
2021/08/10 07:11:42;;;;;;;35.50;12.45;;;;;;;27.08;57.09;100433.53;2853342;83;21033;-62
2021/08/10 07:15:47;;;;;;;9.70;4.58;;;;;;;27.19;57.37;100440.09;2861346;83;20994;-62
2021/08/10 07:19:55;;;;;;;9.73;7.50;;;;;;;27.07;57.35;100432.71;2829048;84;20966;-61
2021/08/10 07:23:58;;;;;;;3.70;2.45;;;;;;;27.21;57.40;100437.44;2846381;83;21002;-62
2021/08/10 07:28:11;;;;;;;3.10;2.15;;;;;;;27.41;57.72;100437.66;2860307;83;21030;-61
2021/08/10 07:32:12;;;;;;;5.53;2.60;;;;;;;27.56;55.54;100447.34;2851498;83;21002;-62
2021/08/10 07:36:19;;;;;;;5.22;2.98;;;;;;;27.54;54.43;100438.55;2844360;83;20989;-61
2021/08/10 07:40:22;;;;;;;22.62;13.15;;;;;;;27.88;54.19;100441.00;2875629;83;21025;-62
2021/08/10 07:44:24;;;;;;;6.92;2.77;;;;;;;28.09;54.58;100428.61;2854139;83;21021;-62
2021/08/10 07:48:28;;;;;;;5.35;2.70;;;;;;;28.43;53.13;100430.75;2843398;83;21051;-62
2021/08/10 07:52:29;;;;;;;5.90;1.87;;;;;;;28.70;51.83;100426.63;2872109;82;21014;-63
2021/08/10 07:56:46;;;;;;;3.30;1.67;;;;;;;29.03;50.63;100431.91;2828780;84;21041;-62
2021/08/10 08:00:49;;;;;;;1.77;1.50;;;;;;;29.33;49.50;100431.62;2845258;83;21025;-62
2021/08/10 08:04:51;;;;;;;3.52;1.82;;;;;;;29.49;48.61;100420.42;2853626;83;20974;-61
2021/08/10 08:08:52;;;;;;;5.65;1.75;;;;;;;29.50;49.38;100415.77;2846757;82;21053;-62
2021/08/10 08:12:54;;;;;;;2.70;1.50;;;;;;;29.66;48.58;100411.34;2852071;83;21057;-62
2021/08/10 08:16:59;;;;;;;3.62;2.02;;;;;;;29.66;48.58;100411.34;2828181;84;20966;-61
2021/08/10 08:21:04;;;;;;;6.45;2.02;;;;;;;29.83;49.09;100417.34;2882689;82;21499;-62
2021/08/10 08:25:10;;;;;;;9.05;3.20;;;;;;;29.90;49.49;100416.65;2841262;83;21065;-62
2021/08/10 08:29:19;;;;;;;6.03;3.08;;;;;;;29.91;49.00;100419.67;2824274;83;20975;-62
2021/08/10 08:33:23;;;;;;;4.75;2.20;;;;;;;29.54;49.45;100413.36;2835577;82;21044;-62
2021/08/10 08:37:34;;;;;;;3.30;2.70;;;;;;;29.55;49.49;100406.24;2851888;83;21081;-62
2021/08/10 08:41:36;;;;;;;2.87;1.67;;;;;;;29.60;48.38;100397.28;2817128;82;20986;-62
2021/08/10 08:45:43;;;;;;;4.53;2.20;;;;;;;29.71;48.65;100390.89;2817072;83;20995;-62
2021/08/10 08:49:59;;;;;;;4.05;2.10;;;;;;;29.75;48.44;100387.08;2843146;83;21069;-62
2021/08/10 08:54:02;;;;;;;4.45;1.90;;;;;;;29.43;48.21;100385.78;2823716;82;20971;-62
2021/08/10 08:58:05;;;;;;;3.42;2.10;;;;;;;29.43;48.21;100385.78;2804394;85;21037;-62
2021/08/10 09:02:17;;;;;;;2.10;1.67;;;;;;;29.08;48.37;100358.06;2814234;83;21029;-62
2021/08/10 09:06:21;;;;;;;4.95;1.90;;;;;;;29.08;48.37;100358.06;2828895;82;21015;-61
2021/08/10 09:10:27;;;;;;;1.70;1.60;;;;;;;29.19;47.65;100383.74;2805714;82;21050;-63
2021/08/10 09:14:46;;;;;;;4.05;1.57;;;;;;;29.18;47.91;100385.64;2821423;83;21097;-62
2021/08/10 09:18:53;;;;;;;2.47;1.00;;;;;;;29.06;49.82;100379.39;2813995;83;21006;-61
2021/08/10 09:22:57;;;;;;;6.85;1.60;;;;;;;29.21;48.82;100365.96;2826028;82;21275;-64
2021/08/10 09:26:59;;;;;;;2.60;1.22;;;;;;;29.21;48.82;100365.96;2847611;82;20951;-61
2021/08/10 09:31:41;;;;;;;2.42;1.27;;;;;;;29.46;47.82;100358.44;2852211;83;21002;-62
2021/08/10 09:35:43;;;;;;;16.95;4.17;;;;;;;29.39;47.16;100350.36;2836188;83;21001;-62
2021/08/10 09:39:47;;;;;;;2.27;1.60;;;;;;;29.28;48.91;100332.94;2858296;83;21034;-61
2021/08/10 09:43:50;;;;;;;1.60;1.20;;;;;;;29.34;47.82;100344.80;2853656;83;21046;-61
2021/08/10 09:48:18;;;;;;;13.93;3.62;;;;;;;29.32;46.80;100333.27;2830001;83;21017;-61
2021/08/10 09:52:29;;;;;;;3.35;1.57;;;;;;;28.96;47.63;100291.63;2872627;83;21014;-61
2021/08/10 09:57:05;;;;;;;3.33;1.20;;;;;;;28.96;47.63;100291.63;2829239;82;20998;-62
2021/08/10 10:01:07;;;;;;;2.30;0.93;;;;;;;29.27;48.35;100298.94;2869768;82;21021;-62
2021/08/10 10:05:09;;;;;;;8.95;5.17;;;;;;;29.71;47.62;100294.95;2851700;83;21041;-62
2021/08/10 10:09:14;;;;;;;4.30;1.82;;;;;;;30.03;46.19;100286.05;2877128;82;21014;-62
2021/08/10 10:13:18;;;;;;;1.75;1.65;;;;;;;30.12;48.13;100295.20;2859508;83;21033;-62
2021/08/10 10:17:23;;;;;;;68.52;12.23;;;;;;;30.13;47.98;100273.55;2847709;83;21014;-62
2021/08/10 10:21:24;;;;;;;54.77;9.58;;;;;;;29.90;47.69;100279.56;2850238;82;21063;-62
2021/08/10 10:25:26;;;;;;;2.22;1.05;;;;;;;29.90;47.69;100279.56;2858301;82;20978;-62
2021/08/10 10:29:29;;;;;;;2.00;1.47;;;;;;;29.85;47.23;100278.95;2811690;84;20994;-62
2021/08/10 10:33:32;;;;;;;16.42;2.45;;;;;;;29.64;45.92;100248.55;2804428;85;20970;-62
2021/08/10 10:37:36;;;;;;;3.80;1.22;;;;;;;29.71;48.16;100268.92;2784927;85;21018;-62
2021/08/10 10:41:39;;;;;;;4.87;1.17;;;;;;;29.56;49.20;100273.63;2818008;82;20967;-62
2021/08/10 10:45:43;;;;;;;35.15;7.97;;;;;;;29.40;48.18;100268.46;2829879;82;20991;-62
2021/08/10 10:50:00;;;;;;;1.80;1.27;;;;;;;29.33;48.95;100258.23;2826059;82;20987;-62
2021/08/10 10:54:26;;;;;;;4.03;1.62;;;;;;;29.29;48.95;100249.69;2813587;82;21080;-61
2021/08/10 10:58:35;;;;;;;6.75;1.00;;;;;;;29.09;48.53;100211.89;2836762;82;21043;-62
2021/08/10 11:02:39;;;;;;;3.95;0.65;;;;;;;29.38;48.49;100241.86;2812746;83;21011;-62
2021/08/10 11:06:49;;;;;;;3.92;1.72;;;;;;;29.48;47.57;100237.09;2807098;83;20964;-62
2021/08/10 11:10:52;;;;;;;3.60;0.90;;;;;;;29.43;46.83;100211.02;2834002;83;21004;-62
2021/08/10 11:14:55;;;;;;;1.80;1.02;;;;;;;29.52;47.52;100231.39;2822410;83;21027;-62
2021/08/10 11:19:46;;;;;;;28.75;4.83;;;;;;;29.39;46.74;100212.02;2834337;83;21012;-62
2021/08/10 11:23:53;;;;;;;10.20;1.50;;;;;;;29.48;47.34;100216.55;2849116;83;20993;-61
2021/08/10 11:27:56;;;;;;;7.20;1.37;;;;;;;29.36;45.78;100196.09;2859367;82;21056;-61
2021/08/10 11:31:57;;;;;;;2.85;1.57;;;;;;;29.36;45.78;100196.09;2863116;82;21597;-61
2021/08/10 11:36:23;;;;;;;5.67;2.55;;;;;;;29.29;45.71;100161.23;2869301;81;21449;-62
2021/08/10 11:40:35;;;;;;;1.87;1.02;;;;;;;29.50;48.20;100186.45;2809828;84;21619;-61
2021/08/10 11:44:31;;;;;;;3.20;1.75;;;;;;;29.56;48.75;100178.29;2821958;82;20956;-61
2021/08/10 11:49:04;;;;;;;4.12;1.70;;;;;;;29.66;47.69;100179.77;2836470;84;21038;-61
2021/08/10 11:53:06;;;;;;;3.55;1.02;;;;;;;29.73;47.72;100166.71;2822501;82;21006;-62
2021/08/10 11:57:13;;;;;;;2.22;1.15;;;;;;;30.04;49.07;100158.81;2831335;82;21038;-62
2021/08/10 12:01:15;;;;;;;6.97;1.12;;;;;;;30.16;47.52;100147.69;2827829;82;20971;-62
2021/08/10 12:05:17;;;;;;;2.62;0.85;;;;;;;30.11;48.53;100135.30;2837009;82;21101;-62
2021/08/10 12:09:43;;;;;;;2.65;1.72;;;;;;;30.05;47.76;100122.08;2828642;82;20990;-62
2021/08/10 12:13:44;;;;;;;15.15;1.70;;;;;;;30.32;49.81;100093.80;2824047;82;21063;-62
2021/08/10 12:18:25;;;;;;;5.08;1.35;;;;;;;30.74;48.23;100094.09;2843281;83;20966;-62
2021/08/10 12:22:31;;;;;;;3.33;1.25;;;;;;;30.89;47.60;100099.68;2829667;82;21000;-62
2021/08/10 12:26:44;;;;;;;4.00;1.87;;;;;;;30.60;47.10;100087.66;2723744;85;21632;-61
2021/08/10 12:30:46;;;;;;;170.60;29.23;;;;;;;29.98;46.95;100091.85;2745390;86;21012;-62
2021/08/10 12:34:48;;;;;;;9.55;2.35;;;;;;;29.83;49.03;100084.28;2768712;84;21078;-61
2021/08/10 12:38:51;;;;;;;13.00;2.05;;;;;;;29.89;48.93;100100.53;2807262;83;21020;-62
2021/08/10 12:42:53;;;;;;;2.45;1.42;;;;;;;30.23;48.11;100108.27;2777788;84;21059;-61
2021/08/10 12:46:58;;;;;;;1.52;1.12;;;;;;;30.21;48.29;100105.23;2792821;84;21542;-62
2021/08/10 12:51:05;;;;;;;6.12;1.77;;;;;;;30.53;49.04;100099.43;2783333;83;21015;-61
2021/08/10 12:55:07;;;;;;;3.15;1.07;;;;;;;30.67;47.00;100097.64;2770324;85;21265;-62
2021/08/10 12:59:48;;;;;;;3.37;1.12;;;;;;;30.85;46.95;100097.72;2780782;85;20983;-61
2021/08/10 13:22:47;;;;;;;6.30;2.30;;;;;;;28.04;52.62;100227.58;2959100;79;73473;-65
2021/08/10 14:13:14;;;;;;;2.42;1.87;;;;;;;23.27;71.30;100279.91;2835673;80;71936;-65
2021/08/10 14:17:15;;;;;;;2.02;1.57;;;;;;;23.51;71.25;100256.16;2883409;80;21032;-65
2021/08/10 14:33:09;;;;;;;2.55;2.35;;;;;;;24.23;66.99;100261.27;2848116;81;24556;-69
2021/08/10 14:47:55;;;;;;;3.35;2.27;;;;;;;24.29;65.94;100257.67;2954935;79;22926;-68
2021/08/10 14:51:57;;;;;;;2.10;1.82;;;;;;;24.28;66.26;100269.59;2939421;80;21006;-67
2021/08/10 14:55:58;;;;;;;3.02;2.60;;;;;;;24.32;66.11;100265.38;2949395;79;20966;-68
2021/08/10 15:00:00;;;;;;;1.75;1.37;;;;;;;24.21;65.09;100276.41;3006388;78;21081;-68
2021/08/10 15:04:02;;;;;;;2.58;1.55;;;;;;;24.00;66.39;100268.03;2928111;80;20914;-69
2021/08/10 15:08:04;;;;;;;6.22;1.80;;;;;;;23.81;65.45;100271.12;2947623;79;20978;-68
2021/08/10 15:12:08;;;;;;;1.82;1.72;;;;;;;23.65;65.94;100266.45;2960206;79;21068;-68
2021/08/10 15:16:09;;;;;;;2.90;2.05;;;;;;;23.66;65.84;100265.41;2966911;79;20985;-69
2021/08/10 15:20:12;;;;;;;3.52;1.87;;;;;;;23.62;65.16;100268.25;2940979;80;21039;-69
2021/08/10 15:24:14;;;;;;;3.27;1.82;;;;;;;23.60;66.64;100266.27;2935112;81;21037;-69
2021/08/10 15:28:16;;;;;;;2.62;1.92;;;;;;;23.66;66.57;100264.59;2966643;79;21001;-68
2021/08/10 15:32:18;;;;;;;9.70;2.50;;;;;;;23.78;67.12;100268.33;2963740;80;21024;-68
2021/08/10 15:36:21;;;;;;;3.25;2.35;;;;;;;24.05;66.57;100260.09;2941988;80;21646;-68
2021/08/10 15:40:24;;;;;;;5.33;2.52;;;;;;;24.17;65.55;100240.37;2989009;79;21033;-69
2021/08/10 15:44:26;;;;;;;4.35;1.65;;;;;;;24.30;66.40;100242.21;2979594;78;21023;-69
2021/08/10 15:48:28;;;;;;;5.17;2.50;;;;;;;24.47;65.13;100237.92;2954024;80;20999;-68
2021/08/10 15:52:30;;;;;;;4.20;2.12;;;;;;;24.60;64.57;100237.50;2934066;81;20986;-66
2021/08/10 15:56:34;;;;;;;5.72;2.22;;;;;;;24.71;64.59;100235.95;2931152;81;21007;-66
2021/08/10 16:00:37;;;;;;;2.58;2.05;;;;;;;24.74;64.52;100234.16;2964991;80;20980;-67
2021/08/10 16:04:39;;;;;;;2.95;1.87;;;;;;;24.79;63.78;100223.50;2933438;81;21023;-67
2021/08/10 16:08:41;;;;;;;1.82;1.60;;;;;;;24.77;64.25;100222.89;2973827;79;21005;-66
2021/08/10 16:12:42;;;;;;;5.90;2.45;;;;;;;24.75;64.18;100219.50;2932977;80;21525;-67
2021/08/10 16:16:44;;;;;;;5.20;2.30;;;;;;;24.70;64.39;100216.62;2930419;81;21052;-66
2021/08/10 16:20:46;;;;;;;4.08;2.75;;;;;;;24.70;64.55;100217.98;2965224;80;21011;-67
2021/08/10 16:24:48;;;;;;;4.25;2.65;;;;;;;24.64;64.80;100216.45;2934055;81;21039;-66
2021/08/10 16:28:50;;;;;;;3.75;2.40;;;;;;;24.64;66.32;100208.30;2965349;80;20979;-67
2021/08/10 16:32:52;;;;;;;2.42;1.80;;;;;;;24.68;65.34;100212.23;2932958;81;21044;-68
2021/08/10 16:36:56;;;;;;;2.10;1.90;;;;;;;24.73;65.21;100202.58;2931899;81;21017;-68
2021/08/10 16:41:04;;;;;;;2.60;2.40;;;;;;;24.72;65.46;100209.06;2932196;81;21012;-67
2021/08/10 16:45:07;;;;;;;5.58;2.67;;;;;;;24.67;65.25;100203.77;2934049;80;20999;-66
2021/08/10 16:49:08;;;;;;;6.12;2.77;;;;;;;24.48;65.38;100199.32;2964817;80;21010;-69
2021/08/10 16:53:10;;;;;;;2.70;2.22;;;;;;;24.37;66.33;100207.14;2929585;81;21042;-67
2021/08/10 16:57:12;;;;;;;3.80;2.85;;;;;;;24.32;66.19;100211.02;2964634;80;21003;-64
2021/08/10 17:01:14;;;;;;;3.95;2.67;;;;;;;24.34;66.40;100202.66;2965108;80;20993;-68
2021/08/10 17:05:16;;;;;;;2.58;2.30;;;;;;;24.28;66.98;100199.47;2969151;79;21058;-68
2021/08/10 17:09:18;;;;;;;9.05;3.67;;;;;;;24.27;67.54;100205.93;3005443;79;20995;-66
2021/08/10 17:13:20;;;;;;;4.25;2.37;;;;;;;24.21;67.50;100206.30;2951487;79;21393;-68
2021/08/10 17:17:21;;;;;;;3.83;2.65;;;;;;;24.15;67.22;100199.85;3004696;79;21030;-69
2021/08/10 17:21:23;;;;;;;9.25;2.80;;;;;;;24.06;67.43;100199.78;2952189;79;20996;-67
2021/08/10 17:25:27;;;;;;;4.22;2.62;;;;;;;23.96;67.47;100200.22;3004668;79;21499;-66
2021/08/10 17:29:28;;;;;;;7.00;2.77;;;;;;;23.94;67.63;100195.53;2951442;80;21012;-68
2021/08/10 17:33:30;;;;;;;9.40;3.83;;;;;;;23.89;67.78;100198.08;2969563;79;20972;-67
2021/08/10 17:37:32;;;;;;;8.88;3.65;;;;;;;23.83;67.79;100195.69;2909448;80;21036;-67
2021/08/10 17:41:34;;;;;;;16.97;3.85;;;;;;;23.78;68.04;100193.65;2956311;80;20982;-67
2021/08/10 17:45:36;;;;;;;8.88;3.90;;;;;;;23.72;68.31;100199.92;2969906;79;21039;-66
2021/08/10 17:49:38;;;;;;;6.08;2.80;;;;;;;23.67;68.36;100198.38;2987040;79;21015;-65
2021/08/10 17:53:40;;;;;;;13.80;3.62;;;;;;;23.60;68.47;100195.69;2914341;81;20962;-65
2021/08/10 17:57:42;;;;;;;15.35;4.03;;;;;;;23.54;68.54;100196.02;2880646;82;21022;-65
2021/08/10 18:01:44;;;;;;;73.07;13.50;;;;;;;23.49;68.86;100205.33;2934843;81;21118;-66
2021/08/10 18:05:46;;;;;;;10.15;4.12;;;;;;;23.41;69.80;100192.00;2936296;80;21019;-66
2021/08/10 18:09:48;;;;;;;24.00;6.12;;;;;;;23.34;69.52;100195.23;2934636;80;21069;-67
2021/08/10 18:13:50;;;;;;;27.10;5.85;;;;;;;23.25;69.78;100202.27;2940922;79;20976;-66
2021/08/10 18:17:52;;;;;;;48.35;10.90;;;;;;;23.17;70.30;100211.12;2877968;80;21840;-66
2021/08/10 18:21:55;;;;;;;68.57;11.80;;;;;;;23.07;70.51;100212.91;2929175;81;20990;-67
2021/08/10 18:25:57;;;;;;;103.70;18.65;;;;;;;22.91;71.03;100217.70;2987364;79;21030;-66
2021/08/10 18:30:00;;;;;;;47.80;11.70;;;;;;;22.77;71.26;100214.68;2913320;81;21009;-68
2021/08/10 18:34:02;;;;;;;32.80;7.95;;;;;;;22.61;72.00;100216.78;2920435;81;21077;-64
2021/08/10 18:38:04;;;;;;;53.42;11.22;;;;;;;22.50;72.22;100219.59;2980268;79;21067;-67
2021/08/10 18:42:06;;;;;;;33.70;7.62;;;;;;;22.39;72.03;100223.67;2960355;80;21046;-65
2021/08/10 18:46:08;;;;;;;64.70;11.05;;;;;;;22.23;73.18;100229.50;2982598;79;20994;-66
2021/08/10 18:50:11;;;;;;;38.28;8.20;;;;;;;21.99;74.01;100236.30;2932938;81;21007;-65
2021/08/10 18:54:12;;;;;;;27.95;9.55;;;;;;;21.74;75.08;100237.64;2987709;79;20970;-63
2021/08/10 18:58:14;;;;;;;43.38;12.68;;;;;;;21.52;75.90;100248.53;2988221;79;21002;-66
2021/08/10 19:02:17;;;;;;;51.98;12.05;;;;;;;21.36;76.12;100247.48;2987916;79;20981;-67
2021/08/10 19:06:19;;;;;;;44.60;10.68;;;;;;;21.35;76.01;100248.02;2923083;80;21063;-66
2021/08/10 19:10:21;;;;;;;25.65;8.15;;;;;;;21.36;76.35;100248.84;2986595;79;21034;-64
2021/08/10 19:14:23;;;;;;;22.75;6.72;;;;;;;21.15;76.83;100246.52;3006105;79;21079;-64
2021/08/10 19:18:25;;;;;;;43.40;8.48;;;;;;;20.90;77.56;100249.66;2970454;80;21064;-63
2021/08/10 19:22:26;;;;;;;51.30;15.28;;;;;;;20.68;78.34;100249.64;2986040;79;20998;-65
2021/08/10 19:26:29;;;;;;;44.13;19.45;;;;;;;20.49;79.27;100246.23;2969100;80;20994;-63
2021/08/10 19:30:32;;;;;;;48.85;19.65;;;;;;;20.33;80.16;100250.84;2931924;81;20982;-68
2021/08/10 19:34:34;;;;;;;26.73;11.25;;;;;;;20.07;81.07;100240.58;2987298;79;20991;-65
2021/08/10 19:38:36;;;;;;;31.87;14.85;;;;;;;19.95;81.63;100245.62;3025713;78;20982;-64
2021/08/10 19:42:40;;;;;;;19.92;12.43;;;;;;;19.88;82.66;100245.50;2986355;79;20966;-67
2021/08/10 19:46:41;;;;;;;25.40;14.73;;;;;;;19.74;82.95;100248.55;2969616;79;21009;-65
2021/08/10 19:50:43;;;;;;;28.65;13.83;;;;;;;19.64;83.48;100246.63;2931354;81;20967;-66
2021/08/10 19:54:46;;;;;;;15.90;7.00;;;;;;;19.57;84.20;100248.41;2975814;78;20977;-66
2021/08/10 19:58:48;;;;;;;24.40;6.45;;;;;;;19.46;84.64;100242.97;2958494;80;20989;-66
2021/08/10 20:02:49;;;;;;;10.15;4.70;;;;;;;19.40;84.83;100240.50;2986436;79;20967;-68
2021/08/10 20:06:51;;;;;;;10.70;4.30;;;;;;;19.35;85.25;100234.83;2968457;80;21526;-65
2021/08/10 20:10:53;;;;;;;17.90;6.33;;;;;;;19.26;85.34;100232.73;2930700;81;21581;-65
2021/08/10 20:14:55;;;;;;;21.57;7.83;;;;;;;19.20;85.73;100231.59;2985991;79;21002;-66
2021/08/10 20:19:04;;;;;;;21.73;9.18;;;;;;;19.18;85.85;100232.30;2980779;78;21002;-66
2021/08/10 20:23:07;;;;;;;15.08;6.60;;;;;;;19.13;85.70;100232.84;2982497;79;20982;-65
2021/08/10 20:27:08;;;;;;;13.10;6.37;;;;;;;19.05;85.48;100238.82;2966830;80;20990;-67
2021/08/10 20:31:10;;;;;;;29.80;8.75;;;;;;;18.97;85.53;100240.55;2978783;78;20994;-66